createdAt,value
2023-04-24T00:00:15.988Z,64.02
2023-04-24T00:05:19.268Z,64.45
2023-04-24T00:10:22.773Z,64.91
2023-04-24T00:15:25.773Z,64.97
2023-04-24T00:20:33.692Z,65.46
2023-04-24T00:25:36.504Z,64.93
2023-04-24T00:30:39.522Z,64.10
2023-04-24T00:35:42.583Z,64.53
2023-04-24T00:40:46.056Z,64.67
2023-04-24T00:45:49.106Z,64.54
2023-04-24T00:50:52.182Z,64.19
2023-04-24T00:55:55.304Z,64.40
2023-04-24T01:00:59.732Z,64.65
2023-04-24T01:06:03.003Z,64.87
2023-04-24T01:11:06.588Z,65.06
2023-04-24T01:16:09.409Z,64.84
2023-04-24T01:21:19.656Z,65.10
2023-04-24T01:26:24.788Z,65.90
2023-04-24T01:31:27.772Z,66.16
2023-04-24T01:36:33.320Z,66.74
2023-04-24T01:41:36.329Z,66.81
2023-04-24T01:46:39.570Z,67.54
2023-04-24T01:51:42.717Z,67.16
2023-04-24T01:56:47.732Z,66.86
2023-04-24T02:01:50.699Z,66.45
2023-04-24T02:06:53.876Z,67.50
2023-04-24T02:11:57.488Z,70.12
2023-04-24T02:17:00.257Z,70.72
2023-04-24T02:22:03.184Z,71.88
2023-04-24T02:27:06.384Z,72.64
2023-04-24T02:32:13.340Z,72.80
2023-04-24T02:37:16.585Z,74.66
2023-04-24T02:42:19.703Z,75.16
2023-04-24T02:47:22.452Z,74.74
2023-04-24T02:52:25.544Z,75.39
2023-04-24T02:57:28.501Z,76.11
2023-04-24T03:02:31.562Z,76.35
2023-04-24T03:07:34.983Z,76.08
2023-04-24T03:12:37.879Z,75.76
2023-04-24T03:17:40.891Z,75.34
2023-04-24T03:22:43.735Z,75.75
2023-04-24T03:27:47.236Z,75.90
2023-04-24T03:32:50.301Z,75.50
2023-04-24T03:37:53.226Z,76.25
2023-04-24T03:42:56.293Z,75.87
2023-04-24T03:47:59.435Z,75.85
2023-04-24T03:53:02.446Z,76.05
2023-04-24T03:58:06.982Z,76.26
2023-04-24T04:03:10.167Z,76.42
2023-04-24T04:08:13.323Z,77.35
2023-04-24T04:13:16.390Z,77.49
2023-04-24T04:18:19.397Z,77.52
2023-04-24T04:23:22.348Z,77.71
2023-04-24T04:28:28.178Z,77.38
2023-04-24T04:33:32.029Z,75.80
2023-04-24T04:38:36.073Z,76.08
2023-04-24T04:43:40.749Z,75.55
2023-04-24T04:48:44.149Z,74.27
2023-04-24T04:53:47.152Z,73.42
2023-04-24T04:58:50.560Z,73.02
2023-04-24T05:03:53.618Z,71.89
2023-04-24T05:08:58.327Z,72.03
2023-04-24T05:14:01.434Z,71.48
2023-04-24T05:19:04.377Z,71.63
2023-04-24T05:24:08.005Z,70.93
2023-04-24T05:29:10.901Z,70.28
2023-04-24T05:34:13.866Z,69.14
2023-04-24T05:39:16.807Z,70.18
2023-04-24T05:44:19.897Z,69.54
2023-04-24T05:49:23.447Z,68.41
2023-04-24T05:54:26.444Z,67.32
2023-04-24T05:59:29.900Z,68.89
2023-04-24T06:04:34.188Z,67.73
2023-04-24T06:09:37.763Z,67.80
2023-04-24T06:14:40.889Z,69.00
2023-04-24T06:19:43.789Z,68.53
2023-04-24T06:24:48.340Z,68.07
2023-04-24T06:29:55.308Z,68.00
2023-04-24T06:34:59.507Z,67.71
2023-04-24T06:40:02.714Z,67.37
2023-04-24T06:45:06.328Z,65.74
2023-04-24T06:50:10.134Z,66.46
2023-04-24T06:55:13.132Z,66.21
2023-04-24T07:00:16.574Z,66.48
2023-04-24T07:05:21.013Z,66.33
2023-04-24T07:10:24.253Z,67.23
2023-04-24T07:15:27.619Z,67.08
2023-04-24T07:20:30.692Z,66.83
2023-04-24T07:25:34.065Z,66.80
2023-04-24T07:30:37.114Z,66.88
2023-04-24T07:35:40.070Z,66.69
2023-04-24T07:40:43.231Z,67.16
2023-04-24T07:45:46.411Z,65.77
2023-04-24T07:50:49.604Z,65.75
2023-04-24T07:55:52.635Z,64.86
2023-04-24T08:00:56.120Z,63.66
2023-04-24T08:05:59.331Z,63.85
2023-04-24T08:11:02.336Z,64.01
2023-04-24T08:16:05.685Z,64.32
2023-04-24T08:21:08.841Z,61.88
2023-04-24T08:26:12.323Z,63.05
2023-04-24T08:31:15.621Z,63.77
2023-04-24T08:36:18.637Z,63.03
2023-04-24T08:41:22.413Z,62.69
2023-04-24T08:46:26.396Z,63.13
2023-04-24T08:51:31.559Z,61.72
2023-04-24T08:56:38.941Z,61.23
2023-04-24T09:01:43.077Z,59.23
2023-04-24T09:06:46.076Z,58.42
2023-04-24T09:11:51.797Z,55.64
2023-04-24T09:16:55.031Z,56.53
2023-04-24T09:21:58.079Z,57.27
2023-04-24T09:27:02.517Z,57.35
2023-04-24T09:32:26.912Z,57.85
2023-04-24T09:37:31.158Z,57.82
2023-04-24T09:42:34.287Z,55.95
2023-04-24T09:47:41.327Z,54.62
2023-04-24T09:53:06.575Z,52.78
2023-04-24T09:58:10.356Z,50.40
2023-04-24T10:03:14.038Z,50.26
2023-04-24T10:08:17.144Z,50.49
2023-04-24T10:13:20.663Z,49.51
2023-04-24T10:18:25.275Z,50.46
2023-04-24T10:23:29.539Z,51.29
2023-04-24T10:28:35.160Z,52.13
2023-04-24T10:33:39.437Z,50.11
2023-04-24T10:38:47.261Z,49.56
2023-04-24T10:44:10.849Z,48.71
2023-04-24T10:49:17.035Z,49.23
2023-04-24T10:54:48.475Z,49.77
2023-04-24T11:00:13.540Z,50.76
2023-04-24T11:05:18.688Z,52.17
2023-04-24T11:10:28.440Z,52.54
2023-04-24T11:15:31.572Z,52.12
2023-04-24T11:20:34.657Z,53.22
2023-04-24T11:25:37.655Z,54.14
2023-04-24T11:30:41.426Z,54.62
2023-04-24T11:35:44.538Z,55.41
2023-04-24T11:40:50.182Z,54.75
2023-04-24T11:45:53.292Z,54.43
2023-04-24T11:50:56.761Z,55.74
2023-04-24T11:56:05.476Z,56.37
2023-04-24T12:01:08.478Z,60.00
2023-04-24T12:06:13.190Z,61.02
2023-04-24T12:11:19.005Z,61.65
2023-04-24T12:16:22.287Z,63.17
2023-04-24T12:21:27.666Z,65.28
2023-04-24T12:26:30.990Z,66.74
2023-04-24T12:31:34.251Z,68.98
2023-04-24T12:36:37.325Z,68.51
2023-04-24T12:42:00.407Z,68.84
2023-04-24T12:47:03.653Z,69.02
2023-04-24T12:52:06.651Z,69.57
2023-04-24T12:57:09.658Z,69.34
2023-04-24T13:02:13.059Z,69.42
2023-04-24T13:07:16.496Z,68.96
2023-04-24T13:12:19.558Z,67.19
2023-04-24T13:17:23.489Z,64.23
2023-04-24T13:22:26.536Z,63.23
2023-04-24T13:27:29.511Z,60.30
2023-04-24T13:32:34.425Z,62.90
2023-04-24T13:37:37.555Z,62.01
2023-04-24T13:42:41.170Z,60.73
2023-04-24T13:47:44.144Z,61.57
2023-04-24T13:52:47.242Z,61.25
2023-04-24T13:57:50.561Z,61.98
2023-04-24T14:02:53.686Z,64.04
2023-04-24T14:07:57.291Z,64.69
2023-04-24T14:13:00.385Z,65.27
2023-04-24T14:18:05.742Z,66.79
2023-04-24T14:23:09.528Z,67.67
2023-04-24T14:28:12.555Z,68.32
2023-04-24T14:33:16.193Z,68.67
2023-04-24T14:38:19.133Z,70.70
2023-04-24T14:43:22.173Z,71.97
2023-04-24T14:48:25.773Z,73.55
2023-04-24T14:53:28.841Z,74.38
2023-04-24T14:58:31.889Z,73.71
2023-04-24T15:03:35.134Z,73.95
2023-04-24T15:08:38.275Z,73.75
2023-04-24T15:13:41.274Z,74.42
2023-04-24T15:18:44.365Z,75.65
2023-04-24T15:23:47.616Z,75.67
2023-04-24T15:28:51.478Z,75.31
2023-04-24T15:33:54.465Z,75.94
2023-04-24T15:38:57.798Z,76.25
2023-04-24T15:44:01.110Z,76.17
2023-04-24T15:49:04.266Z,75.36
2023-04-24T15:54:08.403Z,74.26
2023-04-24T15:59:11.488Z,74.17
2023-04-24T16:04:14.796Z,75.02
2023-04-24T16:09:18.422Z,76.05
2023-04-24T16:14:21.419Z,76.73
2023-04-24T16:19:24.682Z,77.37
2023-04-24T16:24:29.605Z,78.19
2023-04-24T16:29:32.793Z,77.86
2023-04-24T16:34:35.779Z,78.09
2023-04-24T16:39:39.004Z,78.77
2023-04-24T16:44:43.139Z,78.55
2023-04-24T16:49:46.265Z,78.85
2023-04-24T16:54:49.285Z,79.09
2023-04-24T16:59:52.299Z,79.44
2023-04-24T17:04:55.570Z,79.85
2023-04-24T17:09:58.618Z,80.14
2023-04-24T17:15:01.688Z,80.69
2023-04-24T17:20:18.586Z,80.94
2023-04-24T17:25:25.128Z,81.38
2023-04-24T17:30:28.105Z,82.08
2023-04-24T17:35:31.144Z,82.72
2023-04-24T17:40:34.490Z,83.12
2023-04-24T17:45:37.757Z,83.40
2023-04-24T17:50:41.076Z,83.27
2023-04-24T17:55:44.531Z,82.96
2023-04-24T18:00:47.499Z,83.04
2023-04-24T18:05:50.864Z,83.13
2023-04-24T18:10:54.764Z,83.37
2023-04-24T18:15:57.784Z,83.21
2023-04-24T18:21:01.042Z,83.37
2023-04-24T18:26:04.247Z,83.48
2023-04-24T18:31:08.667Z,83.75
2023-04-24T18:36:11.552Z,83.83
2023-04-24T18:41:14.816Z,84.06
2023-04-24T18:46:18.317Z,83.56
2023-04-24T18:51:21.197Z,82.19
2023-04-24T18:56:24.167Z,81.63
2023-04-24T19:01:27.471Z,81.35
2023-04-24T19:06:31.932Z,81.49
2023-04-24T19:11:35.031Z,81.49
2023-04-24T19:16:38.071Z,81.47
2023-04-24T19:21:41.300Z,81.31
2023-04-24T19:26:45.371Z,80.95
2023-04-24T19:31:48.399Z,80.57
2023-04-24T19:36:51.520Z,80.02
2023-04-24T19:41:57.142Z,79.98
2023-04-24T19:47:00.424Z,80.19
2023-04-24T19:52:03.390Z,80.16
2023-04-24T19:57:06.741Z,80.23
2023-04-24T20:02:11.601Z,80.67
2023-04-24T20:07:14.695Z,80.97
2023-04-24T20:12:19.544Z,82.07
2023-04-24T20:17:22.530Z,82.64
2023-04-24T20:22:25.585Z,82.94
2023-04-24T20:27:30.283Z,83.36
2023-04-24T20:32:33.395Z,83.28
2023-04-24T20:37:36.937Z,82.41
2023-04-24T20:42:40.246Z,82.05
2023-04-24T20:47:43.132Z,81.25
2023-04-24T20:52:46.652Z,80.46
2023-04-24T20:57:49.678Z,80.04
2023-04-24T21:02:52.792Z,79.88
2023-04-24T21:07:56.289Z,79.83
2023-04-24T21:12:59.354Z,79.30
2023-04-24T21:18:03.390Z,78.82
2023-04-24T21:23:06.386Z,78.24
2023-04-24T21:28:09.282Z,78.23
2023-04-24T21:33:12.690Z,78.14
2023-04-24T21:38:15.768Z,78.09
2023-04-24T21:43:20.600Z,78.22
2023-04-24T21:48:26.437Z,78.56
2023-04-24T21:53:29.829Z,78.73
2023-04-24T21:58:32.836Z,78.69
2023-04-24T22:03:36.012Z,78.45
2023-04-24T22:08:39.174Z,78.88
2023-04-24T22:13:42.865Z,78.86
2023-04-24T22:18:47.702Z,78.51
2023-04-24T22:23:51.711Z,78.82
2023-04-24T22:28:54.939Z,79.25
2023-04-24T22:33:57.957Z,79.48
2023-04-24T22:39:00.874Z,80.06
2023-04-24T22:44:04.139Z,80.61
2023-04-24T22:49:07.390Z,81.04
2023-04-24T22:54:10.997Z,81.67
2023-04-24T22:59:13.968Z,82.17
2023-04-24T23:04:16.981Z,82.76
2023-04-24T23:09:20.095Z,83.03
2023-04-24T23:14:24.662Z,83.31
2023-04-24T23:19:27.830Z,83.05
2023-04-24T23:24:30.897Z,82.77
2023-04-24T23:29:33.997Z,82.62
2023-04-24T23:34:39.406Z,82.11
2023-04-24T23:39:42.258Z,81.65
2023-04-24T23:44:45.408Z,80.49
2023-04-24T23:49:48.334Z,80.28
2023-04-24T23:54:51.320Z,79.54
2023-04-24T23:59:54.419Z,79.22
